Time;durP1;ratioP1;P1;durP2;ratioP2;P2;SDS_P1;SDS_P2;PMS_P1;PMS_P2;Temp;Humidity;BMP_temperature;BMP_pressure;BME280_temperature;BME280_humidity;BME280_pressure;Samples;Min_cycle;Max_cycle;Signal;HPM_P1;HPM_P2
2022/02/07 00:02:21;;;;;;;2.08;1.17;;;;;;;;;;5048138;28;20199;-74
2022/02/07 00:04:48;;;;;;;3.95;1.17;;;;;;;;;;5048367;28;20191;-74
2022/02/07 00:07:19;;;;;;;1.55;1.10;;;;;;;;;;5041472;28;20203;-74
2022/02/07 00:09:46;;;;;;;2.40;1.38;;;;;;;;;;5045020;28;20203;-74
2022/02/07 00:12:14;;;;;;;2.25;1.20;;;;;;;;;;5045132;28;20265;-74
2022/02/07 00:14:41;;;;;;;5.10;1.30;;;;;;;;;;5045222;28;20696;-74
2022/02/07 00:17:08;;;;;;;3.63;1.00;;;;;;;;;;5046875;28;20187;-74
2022/02/07 00:19:35;;;;;;;5.60;1.60;;;;;;;;;;5049662;28;20222;-74
2022/02/07 00:22:04;;;;;;;3.20;1.15;;;;;;;;;;5046536;28;20195;-74
2022/02/07 00:24:32;;;;;;;3.45;1.33;;;;;;;;;;5043257;28;20269;-74
2022/02/07 00:26:59;;;;;;;8.70;1.20;;;;;;;;;;5048913;28;20206;-74
2022/02/07 00:29:26;;;;;;;4.60;1.55;;;;;;;;;;5047058;28;20648;-74
2022/02/07 00:31:53;;;;;;;2.40;1.00;;;;;;;;;;5046890;28;20329;-74
2022/02/07 00:34:21;;;;;;;3.67;1.35;;;;;;;;;;5048686;28;20197;-75
2022/02/07 00:36:48;;;;;;;2.72;1.02;;;;;;;;;;5043108;28;20206;-74
2022/02/07 00:39:22;;;;;;;6.60;2.63;;;;;;;;;;5045363;28;20223;-74
2022/02/07 00:41:56;;;;;;;2.05;1.15;;;;;;;;;;5051652;28;20657;-74
2022/02/07 00:44:23;;;;;;;2.47;1.50;;;;;;;;;;5049011;28;20203;-75
2022/02/07 00:46:57;;;;;;;6.80;1.10;;;;;;;;;;5045950;28;20206;-74
2022/02/07 00:49:24;;;;;;;4.32;1.35;;;;;;;;;;5044980;28;20197;-74
2022/02/07 00:51:51;;;;;;;4.90;1.52;;;;;;;;;;5047105;28;20187;-74
2022/02/07 00:54:19;;;;;;;2.20;1.35;;;;;;;;;;5044279;28;20194;-74
2022/02/07 00:56:46;;;;;;;2.25;1.13;;;;;;;;;;5042718;28;20561;-74
2022/02/07 00:59:14;;;;;;;2.13;1.25;;;;;;;;;;5041518;28;20214;-74
2022/02/07 01:01:41;;;;;;;1.80;1.10;;;;;;;;;;5045995;28;20514;-74
2022/02/07 01:04:09;;;;;;;3.75;1.20;;;;;;;;;;5052219;28;20557;-74
2022/02/07 01:06:36;;;;;;;1.30;0.98;;;;;;;;;;5044007;28;20202;-74
2022/02/07 01:09:16;;;;;;;1.27;0.80;;;;;;;;;;5047341;28;20214;-73
2022/02/07 01:11:56;;;;;;;1.40;0.90;;;;;;;;;;5048365;28;20205;-74
2022/02/07 01:14:36;;;;;;;1.77;1.20;;;;;;;;;;5043457;28;20213;-73
2022/02/07 01:20:24;;;;;;;4.05;1.05;;;;;;;;;;5033420;28;20233;-74
2022/02/07 01:53:15;;;;;;;2.55;0.93;;;;;;;;;;5039817;28;20194;-74
2022/02/07 01:55:44;;;;;;;2.00;0.90;;;;;;;;;;5052501;28;20199;-74
2022/02/07 01:58:12;;;;;;;3.30;1.10;;;;;;;;;;5043189;28;20349;-74
2022/02/07 02:00:40;;;;;;;1.70;0.80;;;;;;;;;;5041740;28;20206;-73
2022/02/07 02:03:09;;;;;;;2.85;1.10;;;;;;;;;;5040563;28;20200;-74
2022/02/07 02:05:36;;;;;;;1.25;0.80;;;;;;;;;;5041633;28;20213;-74
2022/02/07 02:08:04;;;;;;;3.38;1.25;;;;;;;;;;5042006;28;20217;-74
2022/02/07 02:10:31;;;;;;;4.72;1.00;;;;;;;;;;5037292;28;20291;-74
2022/02/07 02:13:05;;;;;;;4.03;1.20;;;;;;;;;;5041156;28;20683;-74
2022/02/07 02:15:39;;;;;;;6.05;1.45;;;;;;;;;;5037001;28;20187;-74
2022/02/07 02:35:37;;;;;;;1.80;1.00;;;;;;;;;;5043099;28;20237;-74
2022/02/07 02:38:08;;;;;;;2.50;1.15;;;;;;;;;;5049401;28;20206;-73
2022/02/07 02:46:06;;;;;;;4.10;1.10;;;;;;;;;;5047905;28;20218;-73
2022/02/07 02:48:40;;;;;;;5.57;1.35;;;;;;;;;;5053283;28;20205;-74
2022/02/07 02:51:08;;;;;;;5.97;1.30;;;;;;;;;;5057720;28;20252;-74
2022/02/07 02:53:35;;;;;;;2.40;1.48;;;;;;;;;;5043734;28;20202;-74
2022/02/07 02:56:04;;;;;;;6.10;1.20;;;;;;;;;;5046177;28;20203;-73
2022/02/07 02:58:32;;;;;;;2.80;1.25;;;;;;;;;;5045263;28;20195;-73
2022/02/07 03:00:59;;;;;;;2.13;1.00;;;;;;;;;;5039819;28;20290;-73
2022/02/07 03:03:26;;;;;;;7.05;1.52;;;;;;;;;;5044395;28;20242;-74
2022/02/07 03:05:53;;;;;;;2.15;1.00;;;;;;;;;;5042111;28;20203;-74
2022/02/07 03:08:21;;;;;;;2.42;1.10;;;;;;;;;;5046201;28;20231;-73
2022/02/07 03:10:59;;;;;;;4.68;1.42;;;;;;;;;;5044220;28;20207;-73
2022/02/07 03:18:59;;;;;;;5.53;1.40;;;;;;;;;;5044511;28;20226;-73
2022/02/07 03:21:27;;;;;;;4.65;1.75;;;;;;;;;;5045582;28;20223;-73
2022/02/07 03:23:54;;;;;;;6.78;1.67;;;;;;;;;;5043577;28;20230;-73
2022/02/07 03:26:21;;;;;;;3.78;1.23;;;;;;;;;;5046342;28;20214;-74
2022/02/07 03:28:50;;;;;;;5.30;2.42;;;;;;;;;;5038897;28;20297;-73
2022/02/07 03:31:18;;;;;;;4.60;1.42;;;;;;;;;;5046193;28;20195;-73
2022/02/07 03:33:45;;;;;;;5.18;1.63;;;;;;;;;;5038130;28;20204;-75
2022/02/07 03:36:13;;;;;;;3.08;1.35;;;;;;;;;;5025832;28;20223;-74
2022/02/07 03:38:40;;;;;;;2.47;1.30;;;;;;;;;;5030585;28;20215;-75
2022/02/07 03:41:08;;;;;;;4.70;1.23;;;;;;;;;;5035584;28;20203;-74
2022/02/07 03:43:35;;;;;;;5.93;2.05;;;;;;;;;;5035397;28;20247;-74
2022/02/07 03:46:03;;;;;;;2.22;1.83;;;;;;;;;;5030919;28;20223;-74
2022/02/07 03:48:31;;;;;;;5.07;1.65;;;;;;;;;;5032835;28;20199;-73
2022/02/07 03:50:58;;;;;;;7.82;1.80;;;;;;;;;;5034923;28;20193;-74
2022/02/07 03:53:25;;;;;;;2.47;1.13;;;;;;;;;;5030557;28;20214;-73
2022/02/07 03:55:52;;;;;;;3.35;1.00;;;;;;;;;;5035690;28;20199;-74
2022/02/07 03:58:21;;;;;;;2.85;1.48;;;;;;;;;;5032171;28;20195;-73
2022/02/07 04:00:48;;;;;;;2.53;1.33;;;;;;;;;;5026799;28;20680;-73
2022/02/07 04:03:17;;;;;;;6.55;1.58;;;;;;;;;;5028158;28;20592;-74
2022/02/07 04:05:49;;;;;;;8.48;1.63;;;;;;;;;;5024631;28;20689;-73
2022/02/07 04:08:17;;;;;;;2.30;1.20;;;;;;;;;;5031348;28;20203;-73
2022/02/07 04:10:56;;;;;;;3.63;1.40;;;;;;;;;;5036052;28;20658;-73
2022/02/07 04:13:28;;;;;;;5.53;1.40;;;;;;;;;;5034407;28;20199;-74
2022/02/07 04:15:56;;;;;;;3.88;1.27;;;;;;;;;;5026447;28;20207;-74
2022/02/07 04:18:27;;;;;;;4.47;1.33;;;;;;;;;;5032509;28;20198;-74
2022/02/07 04:20:54;;;;;;;4.88;1.50;;;;;;;;;;5023844;28;20215;-74
2022/02/07 04:23:21;;;;;;;9.07;2.42;;;;;;;;;;5027560;28;20714;-75
2022/02/07 04:25:48;;;;;;;4.63;1.40;;;;;;;;;;5037223;28;20204;-74
2022/02/07 04:28:16;;;;;;;4.53;1.40;;;;;;;;;;5030039;28;20202;-74
2022/02/07 04:30:43;;;;;;;2.83;1.20;;;;;;;;;;5033687;28;20195;-73
2022/02/07 04:33:10;;;;;;;6.22;1.55;;;;;;;;;;5029926;28;20210;-75
2022/02/07 04:35:39;;;;;;;5.13;1.63;;;;;;;;;;5030564;28;20658;-74
2022/02/07 04:38:06;;;;;;;3.13;1.17;;;;;;;;;;5038670;28;20567;-74
2022/02/07 04:40:33;;;;;;;3.50;1.58;;;;;;;;;;5034199;28;20682;-74
2022/02/07 04:43:00;;;;;;;4.93;1.45;;;;;;;;;;5030319;28;20219;-74
2022/02/07 04:45:51;;;;;;;5.00;2.17;;;;;;;;;;5022158;28;20228;-74
2022/02/07 04:48:41;;;;;;;5.13;1.80;;;;;;;;;;5024412;28;20231;-74
2022/02/07 04:51:37;;;;;;;6.32;1.65;;;;;;;;;;5026783;28;20196;-74
2022/02/07 04:54:16;;;;;;;3.95;1.20;;;;;;;;;;5030881;28;20199;-74
2022/02/07 04:57:09;;;;;;;3.40;1.40;;;;;;;;;;5031330;28;20209;-74
2022/02/07 04:59:45;;;;;;;10.80;2.28;;;;;;;;;;5032344;28;20316;-74
2022/02/07 05:02:20;;;;;;;6.40;1.30;;;;;;;;;;5029573;28;20464;-74
2022/02/07 05:04:54;;;;;;;7.88;1.80;;;;;;;;;;5037361;28;20653;-73
2022/02/07 05:15:37;;;;;;;12.75;2.80;;;;;;;;;;5029284;28;20201;-74
2022/02/07 05:18:04;;;;;;;7.22;2.10;;;;;;;;;;5028325;28;20726;-74
2022/02/07 05:20:31;;;;;;;4.30;1.50;;;;;;;;;;5025151;28;20668;-73
2022/02/07 05:22:59;;;;;;;5.60;1.60;;;;;;;;;;5023849;28;20223;-74
2022/02/07 05:25:27;;;;;;;3.45;1.45;;;;;;;;;;5031067;28;20204;-74
2022/02/07 05:27:54;;;;;;;10.65;2.00;;;;;;;;;;5021453;28;20200;-74
2022/02/07 05:30:21;;;;;;;6.35;2.03;;;;;;;;;;5027207;28;20195;-74
2022/02/07 05:32:48;;;;;;;8.75;1.88;;;;;;;;;;5026838;28;20215;-74
2022/02/07 05:35:15;;;;;;;5.78;1.80;;;;;;;;;;5030388;28;20210;-74
2022/02/07 05:37:42;;;;;;;5.97;1.48;;;;;;;;;;5026286;28;20195;-73
2022/02/07 05:40:18;;;;;;;10.43;2.90;;;;;;;;;;5028083;28;20647;-74
2022/02/07 05:42:45;;;;;;;6.97;2.22;;;;;;;;;;5030232;28;20195;-74
2022/02/07 05:45:12;;;;;;;9.82;2.42;;;;;;;;;;5020097;28;20223;-74
2022/02/07 05:47:39;;;;;;;8.77;1.63;;;;;;;;;;5028652;28;20206;-73
2022/02/07 05:50:06;;;;;;;9.98;1.77;;;;;;;;;;5025709;28;20559;-74
2022/02/07 05:52:33;;;;;;;5.10;2.08;;;;;;;;;;5027075;28;20280;-74
2022/02/07 05:55:00;;;;;;;7.93;2.03;;;;;;;;;;5028223;28;20200;-74
2022/02/07 05:57:29;;;;;;;3.38;1.60;;;;;;;;;;5026251;28;20571;-75
2022/02/07 05:59:56;;;;;;;6.95;2.05;;;;;;;;;;5028369;28;20558;-75
2022/02/07 06:02:23;;;;;;;6.82;1.60;;;;;;;;;;5023475;28;20558;-75
2022/02/07 06:04:50;;;;;;;8.73;2.45;;;;;;;;;;5020040;28;20228;-75
2022/02/07 06:07:17;;;;;;;5.20;2.17;;;;;;;;;;5023032;28;20200;-75
2022/02/07 06:09:44;;;;;;;6.32;1.75;;;;;;;;;;5022893;28;20207;-75
2022/02/07 06:12:11;;;;;;;11.27;2.45;;;;;;;;;;5019327;28;20206;-74
2022/02/07 06:14:40;;;;;;;7.50;2.05;;;;;;;;;;5027379;28;20195;-74
2022/02/07 06:17:07;;;;;;;6.78;2.10;;;;;;;;;;5030089;28;20242;-74
2022/02/07 06:19:34;;;;;;;7.63;2.15;;;;;;;;;;5027789;28;20207;-74
2022/02/07 06:22:01;;;;;;;6.13;2.50;;;;;;;;;;5020318;28;20215;-75
2022/02/07 06:24:28;;;;;;;9.07;2.85;;;;;;;;;;5030909;28;20211;-75
2022/02/07 06:26:56;;;;;;;6.28;2.65;;;;;;;;;;5030247;28;20203;-74
2022/02/07 06:29:23;;;;;;;3.72;1.60;;;;;;;;;;5043008;28;20207;-74
2022/02/07 06:31:52;;;;;;;2.60;1.52;;;;;;;;;;5041774;28;20536;-75
2022/02/07 06:34:19;;;;;;;7.18;2.20;;;;;;;;;;5030643;28;20196;-75
2022/02/07 06:36:46;;;;;;;13.60;1.90;;;;;;;;;;5021764;28;20668;-75
2022/02/07 06:39:13;;;;;;;7.88;2.08;;;;;;;;;;5035918;28;20203;-75
2022/02/07 06:41:42;;;;;;;6.15;2.00;;;;;;;;;;5030929;28;20201;-75
2022/02/07 06:44:09;;;;;;;2.25;1.55;;;;;;;;;;5028279;28;20211;-76
2022/02/07 06:46:37;;;;;;;7.30;2.30;;;;;;;;;;5030028;28;20705;-75
2022/02/07 06:49:05;;;;;;;7.15;1.85;;;;;;;;;;5028618;28;21387;-76
2022/02/07 06:51:32;;;;;;;6.00;1.88;;;;;;;;;;5028546;28;20670;-76
2022/02/07 06:53:59;;;;;;;4.22;1.50;;;;;;;;;;5026299;28;20651;-76
2022/02/07 06:56:26;;;;;;;4.82;1.73;;;;;;;;;;5024937;28;20214;-76
2022/02/07 06:58:53;;;;;;;7.10;1.67;;;;;;;;;;5025352;28;20655;-76
2022/02/07 07:01:21;;;;;;;5.03;1.60;;;;;;;;;;5027478;28;20204;-76
2022/02/07 07:03:48;;;;;;;5.72;1.60;;;;;;;;;;5025293;28;20215;-76
2022/02/07 07:06:16;;;;;;;3.58;1.70;;;;;;;;;;5028195;28;20233;-76
2022/02/07 07:08:47;;;;;;;2.95;1.85;;;;;;;;;;5029599;28;20215;-76
2022/02/07 07:11:17;;;;;;;2.33;1.30;;;;;;;;;;5035343;28;20229;-76
2022/02/07 07:13:49;;;;;;;9.95;2.03;;;;;;;;;;5032651;28;20195;-76
2022/02/07 07:16:38;;;;;;;7.22;2.38;;;;;;;;;;5028887;28;20212;-76
2022/02/07 07:19:06;;;;;;;8.23;3.03;;;;;;;;;;5029853;28;20192;-76
2022/02/07 07:21:34;;;;;;;5.45;1.75;;;;;;;;;;5030200;28;20660;-76
2022/02/07 07:24:02;;;;;;;7.50;2.05;;;;;;;;;;5034607;28;20211;-77
2022/02/07 07:26:30;;;;;;;4.25;1.77;;;;;;;;;;5034721;28;20702;-76
2022/02/07 07:29:00;;;;;;;6.20;1.70;;;;;;;;;;5031631;28;20199;-75
2022/02/07 07:31:28;;;;;;;10.38;1.77;;;;;;;;;;5032894;28;20230;-76
2022/02/07 07:33:55;;;;;;;7.00;1.70;;;;;;;;;;5034321;28;20196;-76
2022/02/07 07:36:22;;;;;;;5.72;2.33;;;;;;;;;;5032171;28;20548;-76
2022/02/07 07:38:51;;;;;;;6.05;1.58;;;;;;;;;;5035942;28;20207;-76
2022/02/07 07:41:19;;;;;;;3.72;2.20;;;;;;;;;;5030042;28;20199;-75
2022/02/07 07:43:48;;;;;;;3.92;1.80;;;;;;;;;;5028328;28;20277;-76
2022/02/07 07:46:18;;;;;;;7.40;2.28;;;;;;;;;;5029986;28;20242;-75
2022/02/07 07:48:51;;;;;;;5.03;1.70;;;;;;;;;;5031813;28;20286;-75
2022/02/07 07:51:33;;;;;;;13.70;3.13;;;;;;;;;;5026098;28;20202;-75
2022/02/07 07:54:24;;;;;;;6.97;2.20;;;;;;;;;;5024154;28;20199;-74
2022/02/07 08:02:24;;;;;;;7.85;2.28;;;;;;;;;;5025633;28;20195;-74
2022/02/07 08:04:53;;;;;;;8.77;2.78;;;;;;;;;;5028799;28;20219;-74
2022/02/07 08:07:23;;;;;;;8.65;1.83;;;;;;;;;;5022316;28;20287;-74
2022/02/07 08:10:26;;;;;;;5.50;1.65;;;;;;;;;;5024635;28;20579;-74
2022/02/07 08:12:53;;;;;;;8.82;2.33;;;;;;;;;;5023334;28;20531;-74
2022/02/07 08:15:20;;;;;;;5.25;1.90;;;;;;;;;;5026382;28;20230;-75
2022/02/07 08:17:47;;;;;;;4.25;2.35;;;;;;;;;;5030669;28;20206;-74
2022/02/07 08:20:14;;;;;;;4.05;2.03;;;;;;;;;;5027879;28;20578;-74
2022/02/07 08:22:41;;;;;;;6.80;2.45;;;;;;;;;;5023601;28;20591;-74
2022/02/07 08:25:10;;;;;;;9.02;1.75;;;;;;;;;;5031990;28;20683;-74
2022/02/07 08:27:38;;;;;;;5.45;2.00;;;;;;;;;;5023551;28;20663;-74
2022/02/07 08:30:05;;;;;;;6.47;1.95;;;;;;;;;;5022618;28;20679;-74
2022/02/07 08:32:33;;;;;;;6.30;2.65;;;;;;;;;;5029951;28;20195;-74
2022/02/07 08:35:01;;;;;;;9.93;2.10;;;;;;;;;;5030591;28;20512;-74
2022/02/07 08:37:28;;;;;;;4.50;1.60;;;;;;;;;;5029589;28;20251;-74
2022/02/07 08:39:55;;;;;;;4.30;1.70;;;;;;;;;;5029933;28;20566;-74
2022/02/07 08:42:23;;;;;;;6.88;1.95;;;;;;;;;;5032410;28;20196;-74
2022/02/07 08:44:50;;;;;;;10.52;2.10;;;;;;;;;;5026846;28;20234;-74
2022/02/07 08:47:18;;;;;;;3.42;1.73;;;;;;;;;;5031183;28;20570;-74
2022/02/07 08:49:45;;;;;;;1.40;1.17;;;;;;;;;;5029261;28;20204;-74
2022/02/07 08:52:13;;;;;;;15.57;3.33;;;;;;;;;;5022332;28;20200;-74
2022/02/07 08:54:40;;;;;;;4.25;2.47;;;;;;;;;;5029954;28;20640;-74
2022/02/07 08:57:24;;;;;;;6.80;2.15;;;;;;;;;;5029793;28;20199;-74
2022/02/07 09:00:09;;;;;;;6.55;2.10;;;;;;;;;;5028486;28;20199;-75
2022/02/07 09:02:55;;;;;;;4.22;1.80;;;;;;;;;;5025255;28;20191;-74
2022/02/07 09:05:41;;;;;;;7.10;2.40;;;;;;;;;;5030577;28;20556;-74
2022/02/07 09:08:21;;;;;;;4.05;1.60;;;;;;;;;;5031678;28;20257;-74
2022/02/07 09:10:49;;;;;;;5.93;1.98;;;;;;;;;;5029679;28;20746;-74
2022/02/07 09:13:18;;;;;;;5.32;2.30;;;;;;;;;;5024947;28;20211;-76
2022/02/07 09:16:02;;;;;;;4.93;2.00;;;;;;;;;;5031206;28;20285;-74
2022/02/07 09:18:29;;;;;;;5.10;2.20;;;;;;;;;;5023323;28;21957;-74
2022/02/07 09:20:58;;;;;;;5.43;2.17;;;;;;;;;;5025819;28;20663;-74
2022/02/07 09:23:27;;;;;;;4.32;1.70;;;;;;;;;;5027281;28;20302;-74
2022/02/07 09:25:54;;;;;;;4.78;2.65;;;;;;;;;;5017718;28;20219;-74
2022/02/07 09:28:21;;;;;;;4.93;1.90;;;;;;;;;;5032178;28;20198;-74
2022/02/07 09:30:50;;;;;;;15.23;2.78;;;;;;;;;;5021501;28;20195;-74
2022/02/07 09:33:17;;;;;;;10.68;2.28;;;;;;;;;;5023688;28;20572;-74
2022/02/07 09:35:44;;;;;;;7.80;2.65;;;;;;;;;;5026104;28;20192;-74
2022/02/07 09:38:11;;;;;;;7.38;2.30;;;;;;;;;;5025218;28;20187;-74
2022/02/07 09:40:39;;;;;;;6.70;2.10;;;;;;;;;;5032723;28;20199;-75
2022/02/07 09:43:06;;;;;;;7.40;1.90;;;;;;;;;;5040102;28;20196;-74
2022/02/07 09:45:36;;;;;;;6.03;1.63;;;;;;;;;;5017288;28;20234;-74
2022/02/07 09:48:06;;;;;;;6.43;2.35;;;;;;;;;;5030568;28;20234;-74
2022/02/07 09:50:34;;;;;;;7.93;1.73;;;;;;;;;;5027369;28;20666;-74
2022/02/07 09:53:01;;;;;;;4.35;1.83;;;;;;;;;;5030620;28;20199;-74
2022/02/07 09:55:29;;;;;;;9.15;1.80;;;;;;;;;;5026495;28;20903;-74
2022/02/07 09:57:56;;;;;;;11.57;2.67;;;;;;;;;;5021023;28;20207;-74
2022/02/07 10:00:28;;;;;;;11.90;2.65;;;;;;;;;;5019902;28;20196;-74
2022/02/07 10:03:06;;;;;;;8.57;2.30;;;;;;;;;;5019509;28;20207;-74
2022/02/07 10:05:44;;;;;;;3.75;1.58;;;;;;;;;;5020027;28;20307;-74
2022/02/07 10:08:17;;;;;;;6.78;2.40;;;;;;;;;;5021639;28;20683;-74
2022/02/07 10:10:58;;;;;;;3.58;2.08;;;;;;;;;;5026265;28;20286;-75
2022/02/07 10:13:38;;;;;;;5.43;1.73;;;;;;;;;;5023839;28;20211;-74
2022/02/07 10:16:23;;;;;;;14.38;2.22;;;;;;;;;;5018261;28;20195;-75
2022/02/07 10:19:01;;;;;;;5.80;2.05;;;;;;;;;;5023502;28;20195;-74
2022/02/07 10:22:00;;;;;;;2.90;1.63;;;;;;;;;;5025660;28;20199;-74
2022/02/07 10:36:07;;;;;;;8.98;2.85;;;;;;;;;;5022988;28;20265;-74
2022/02/07 10:38:46;;;;;;;4.25;2.15;;;;;;;;;;5025257;28;20306;-74
2022/02/07 10:41:23;;;;;;;6.32;2.10;;;;;;;;;;5026220;28;20201;-74
2022/02/07 10:44:04;;;;;;;13.63;1.95;;;;;;;;;;5024907;28;20574;-74
2022/02/07 10:46:35;;;;;;;9.10;2.90;;;;;;;;;;5026949;28;20242;-74
2022/02/07 10:49:08;;;;;;;6.78;1.63;;;;;;;;;;5025425;28;20270;-74
2022/02/07 10:51:37;;;;;;;8.55;2.20;;;;;;;;;;5024013;28;20625;-74
2022/02/07 10:54:06;;;;;;;18.77;2.55;;;;;;;;;;5030461;28;20199;-74
2022/02/07 10:56:37;;;;;;;5.90;2.63;;;;;;;;;;5029343;28;20218;-74
2022/02/07 10:59:06;;;;;;;12.63;3.88;;;;;;;;;;5028927;28;20380;-74
2022/02/07 11:01:53;;;;;;;6.32;2.42;;;;;;;;;;5025213;28;20710;-74
2022/02/07 11:04:25;;;;;;;6.63;2.75;;;;;;;;;;5023908;28;20207;-74
2022/02/07 11:06:58;;;;;;;5.82;3.50;;;;;;;;;;5025492;28;20218;-74
2022/02/07 11:09:34;;;;;;;5.13;1.92;;;;;;;;;;5033320;28;20234;-74
2022/02/07 11:12:17;;;;;;;4.65;2.35;;;;;;;;;;5031233;28;20199;-75
2022/02/07 11:14:54;;;;;;;8.45;2.42;;;;;;;;;;5024577;28;20198;-75
2022/02/07 11:20:44;;;;;;;8.75;2.70;;;;;;;;;;5017296;28;20210;-75
2022/02/07 11:23:21;;;;;;;13.70;2.10;;;;;;;;;;5028980;28;20217;-74
2022/02/07 11:25:55;;;;;;;5.97;2.15;;;;;;;;;;5030001;28;20219;-74
2022/02/07 11:28:25;;;;;;;5.57;2.20;;;;;;;;;;5029948;28;20207;-75
2022/02/07 11:30:53;;;;;;;8.98;2.30;;;;;;;;;;5022771;28;20204;-74
2022/02/07 11:33:30;;;;;;;6.47;2.15;;;;;;;;;;5027470;28;20227;-74
2022/02/07 11:35:58;;;;;;;6.28;1.65;;;;;;;;;;5025782;28;20199;-74
2022/02/07 11:38:25;;;;;;;4.22;2.20;;;;;;;;;;5028680;28;20206;-74
2022/02/07 11:41:01;;;;;;;5.40;2.60;;;;;;;;;;5024686;28;20203;-75
2022/02/07 11:43:30;;;;;;;6.32;2.17;;;;;;;;;;5028283;28;20204;-74
2022/02/07 11:45:58;;;;;;;10.55;2.00;;;;;;;;;;5017445;28;20239;-76
2022/02/07 11:48:35;;;;;;;5.68;2.00;;;;;;;;;;5024114;28;20204;-74
2022/02/07 11:51:04;;;;;;;7.63;2.85;;;;;;;;;;5019445;28;20293;-74
2022/02/07 11:53:32;;;;;;;10.60;2.55;;;;;;;;;;5027395;28;20286;-74
2022/02/07 11:56:08;;;;;;;5.72;2.20;;;;;;;;;;5029498;28;20199;-74
2022/02/07 11:58:49;;;;;;;8.48;2.40;;;;;;;;;;5028398;28;20210;-74
2022/02/07 12:01:17;;;;;;;6.95;2.63;;;;;;;;;;5025452;28;20253;-74
2022/02/07 12:03:52;;;;;;;5.18;2.58;;;;;;;;;;5032507;28;20200;-74
2022/02/07 12:06:23;;;;;;;4.60;2.15;;;;;;;;;;5021512;28;20775;-74
2022/02/07 12:08:50;;;;;;;5.40;1.80;;;;;;;;;;5021205;28;20199;-74
2022/02/07 12:11:19;;;;;;;7.55;2.67;;;;;;;;;;5027336;28;20586;-74
2022/02/07 12:13:46;;;;;;;7.75;2.80;;;;;;;;;;5029889;28;20675;-75
2022/02/07 12:16:15;;;;;;;5.45;2.17;;;;;;;;;;5019494;28;20660;-74
2022/02/07 12:18:42;;;;;;;9.50;2.85;;;;;;;;;;5025979;28;20614;-75
2022/02/07 12:21:17;;;;;;;11.85;2.50;;;;;;;;;;5022041;28;20203;-74
2022/02/07 12:23:45;;;;;;;7.68;2.55;;;;;;;;;;5026854;28;20210;-75
2022/02/07 12:26:16;;;;;;;9.23;2.50;;;;;;;;;;5029216;28;20215;-75
2022/02/07 12:28:46;;;;;;;4.78;2.67;;;;;;;;;;5029034;28;20203;-74
2022/02/07 12:31:18;;;;;;;6.25;1.77;;;;;;;;;;5013262;28;20222;-74
2022/02/07 12:33:46;;;;;;;5.72;1.95;;;;;;;;;;5022648;28;20702;-74
2022/02/07 12:36:13;;;;;;;6.88;2.20;;;;;;;;;;5020885;28;20567;-74
2022/02/07 12:38:41;;;;;;;5.18;2.50;;;;;;;;;;5026572;28;20203;-74
2022/02/07 12:41:11;;;;;;;4.60;1.95;;;;;;;;;;5025145;28;20970;-75
2022/02/07 12:43:38;;;;;;;13.20;2.03;;;;;;;;;;5024811;28;20207;-75
2022/02/07 12:46:08;;;;;;;10.23;2.17;;;;;;;;;;5014254;28;20227;-74
2022/02/07 12:48:39;;;;;;;3.70;2.50;;;;;;;;;;5027681;28;20204;-74
2022/02/07 12:51:06;;;;;;;9.30;2.65;;;;;;;;;;5015524;28;20778;-75
2022/02/07 12:53:34;;;;;;;7.00;2.22;;;;;;;;;;5021627;28;20200;-75
2022/02/07 12:56:02;;;;;;;8.50;2.28;;;;;;;;;;5025759;28;20203;-75
2022/02/07 12:58:34;;;;;;;9.20;2.20;;;;;;;;;;5027860;28;20215;-75
2022/02/07 13:03:57;;;;;;;7.60;2.30;;;;;;;;;;5056761;27;20624;-73
2022/02/07 13:06:25;;;;;;;6.68;1.80;;;;;;;;;;5061740;28;20645;-73
2022/02/07 13:08:53;;;;;;;9.85;2.10;;;;;;;;;;5063486;28;20194;-74
2022/02/07 13:11:27;;;;;;;4.18;2.22;;;;;;;;;;5064939;28;20198;-73
2022/02/07 13:13:54;;;;;;;6.68;2.38;;;;;;;;;;5061672;28;20683;-73
2022/02/07 13:16:22;;;;;;;9.85;2.05;;;;;;;;;;5060668;28;20194;-74
2022/02/07 13:18:49;;;;;;;7.63;1.92;;;;;;;;;;5063580;28;20198;-73
2022/02/07 13:21:18;;;;;;;8.45;2.97;;;;;;;;;;5059385;28;20194;-73
2022/02/07 13:23:47;;;;;;;11.40;2.17;;;;;;;;;;5062987;28;20696;-72
2022/02/07 13:26:14;;;;;;;3.88;1.75;;;;;;;;;;5053992;28;20218;-73
2022/02/07 13:28:43;;;;;;;6.72;2.03;;;;;;;;;;5052817;28;20217;-73
2022/02/07 13:31:11;;;;;;;9.00;2.63;;;;;;;;;;5062323;28;20571;-73
2022/02/07 13:33:48;;;;;;;6.63;2.10;;;;;;;;;;5059710;28;20190;-73
2022/02/07 13:36:25;;;;;;;6.45;1.85;;;;;;;;;;5053655;28;20226;-73
2022/02/07 13:38:54;;;;;;;8.27;2.28;;;;;;;;;;5062713;28;20202;-73
2022/02/07 13:41:21;;;;;;;8.75;1.73;;;;;;;;;;5062226;28;20199;-73
2022/02/07 13:43:48;;;;;;;5.30;2.58;;;;;;;;;;5045222;28;20221;-73
2022/02/07 13:46:17;;;;;;;4.90;2.03;;;;;;;;;;5059718;28;20966;-73
2022/02/07 13:48:44;;;;;;;6.38;1.90;;;;;;;;;;5060926;28;20561;-73
2022/02/07 13:51:11;;;;;;;7.80;2.70;;;;;;;;;;5059667;28;20197;-72
2022/02/07 13:53:39;;;;;;;7.05;1.90;;;;;;;;;;5064292;28;20195;-72
2022/02/07 13:56:08;;;;;;;4.78;2.28;;;;;;;;;;5065461;28;20239;-72
2022/02/07 13:58:36;;;;;;;8.80;2.00;;;;;;;;;;5057968;28;20183;-72
2022/02/07 14:01:04;;;;;;;8.73;2.40;;;;;;;;;;5056922;28;20642;-72
2022/02/07 14:03:33;;;;;;;4.88;1.85;;;;;;;;;;5062769;28;20214;-72
2022/02/07 14:06:06;;;;;;;10.10;2.83;;;;;;;;;;5062483;28;20191;-72
2022/02/07 14:08:34;;;;;;;9.88;2.08;;;;;;;;;;5064233;28;20196;-72
2022/02/07 14:11:01;;;;;;;9.02;1.95;;;;;;;;;;5065082;28;20201;-72
2022/02/07 14:13:30;;;;;;;4.55;1.70;;;;;;;;;;5063848;28;20297;-72
2022/02/07 14:15:57;;;;;;;7.53;2.47;;;;;;;;;;5046179;28;20411;-72
2022/02/07 14:18:26;;;;;;;3.90;1.67;;;;;;;;;;5042816;28;20206;-72
2022/02/07 14:20:54;;;;;;;5.85;1.85;;;;;;;;;;5037673;28;21460;-72
2022/02/07 14:23:21;;;;;;;5.25;1.85;;;;;;;;;;5049587;28;20573;-72
2022/02/07 14:25:52;;;;;;;6.78;2.20;;;;;;;;;;5049156;28;20221;-72
2022/02/07 14:28:19;;;;;;;6.95;1.75;;;;;;;;;;5035379;28;20385;-72
2022/02/07 14:30:48;;;;;;;7.45;2.10;;;;;;;;;;5029844;28;20211;-72
2022/02/07 14:33:15;;;;;;;4.75;2.00;;;;;;;;;;5038273;28;20540;-72
2022/02/07 14:35:42;;;;;;;4.57;1.65;;;;;;;;;;5048079;28;20706;-73
2022/02/07 14:38:10;;;;;;;2.90;1.70;;;;;;;;;;5046813;28;20565;-72
2022/02/07 14:40:40;;;;;;;4.68;2.15;;;;;;;;;;5049274;28;20195;-73
2022/02/07 14:43:08;;;;;;;6.70;1.95;;;;;;;;;;5044144;28;20222;-73
2022/02/07 14:45:38;;;;;;;9.73;2.45;;;;;;;;;;5040813;28;20595;-72
2022/02/07 14:48:07;;;;;;;9.27;2.15;;;;;;;;;;5036498;28;20190;-72
2022/02/07 14:50:35;;;;;;;7.57;1.67;;;;;;;;;;5046949;28;20206;-73
2022/02/07 14:53:02;;;;;;;7.45;2.60;;;;;;;;;;5046445;28;20205;-73
2022/02/07 14:55:29;;;;;;;7.25;2.17;;;;;;;;;;5047239;28;20519;-72
2022/02/07 14:57:57;;;;;;;6.75;1.92;;;;;;;;;;5049621;28;20210;-72
2022/02/07 15:00:25;;;;;;;5.10;2.55;;;;;;;;;;5040080;28;20199;-72
2022/02/07 15:02:53;;;;;;;8.73;3.70;;;;;;;;;;5044755;28;20223;-72
2022/02/07 15:05:21;;;;;;;6.60;2.22;;;;;;;;;;5048790;28;20198;-72
2022/02/07 15:07:48;;;;;;;10.77;3.13;;;;;;;;;;5041252;28;20206;-72
2022/02/07 15:10:17;;;;;;;11.25;3.15;;;;;;;;;;5047726;28;20290;-71
2022/02/07 15:12:44;;;;;;;12.10;3.83;;;;;;;;;;5047195;28;20585;-72
2022/02/07 15:15:11;;;;;;;5.35;2.25;;;;;;;;;;5045471;28;20290;-72
2022/02/07 15:17:38;;;;;;;9.75;2.55;;;;;;;;;;5047569;28;20198;-72
2022/02/07 15:20:06;;;;;;;3.38;1.50;;;;;;;;;;5046446;28;20700;-72
2022/02/07 15:22:35;;;;;;;4.40;2.00;;;;;;;;;;5044079;28;20567;-72
2022/02/07 15:25:02;;;;;;;4.20;1.58;;;;;;;;;;5046418;28;20242;-72
2022/02/07 15:27:29;;;;;;;3.10;1.65;;;;;;;;;;5048593;28;20198;-73
2022/02/07 15:29:57;;;;;;;7.68;1.83;;;;;;;;;;5037332;28;20710;-73
2022/02/07 15:32:27;;;;;;;6.95;1.95;;;;;;;;;;5030646;28;20195;-73
2022/02/07 15:34:55;;;;;;;5.82;2.38;;;;;;;;;;5039391;28;20218;-73
2022/02/07 15:37:22;;;;;;;3.63;1.50;;;;;;;;;;5034604;28;20202;-73
2022/02/07 15:39:50;;;;;;;7.38;2.28;;;;;;;;;;5040325;28;20198;-72
2022/02/07 15:42:17;;;;;;;9.18;1.70;;;;;;;;;;5047760;28;20201;-73
2022/02/07 15:44:45;;;;;;;7.60;2.10;;;;;;;;;;5048092;28;20257;-73
2022/02/07 15:47:12;;;;;;;4.78;2.63;;;;;;;;;;5038347;28;20218;-73
2022/02/07 15:49:39;;;;;;;9.30;1.52;;;;;;;;;;5039116;28;20321;-73
2022/02/07 15:52:06;;;;;;;5.65;1.73;;;;;;;;;;5038444;28;20203;-73
2022/02/07 15:54:37;;;;;;;3.50;1.45;;;;;;;;;;5044785;28;20202;-72
2022/02/07 15:57:08;;;;;;;3.03;1.45;;;;;;;;;;5047734;28;20689;-73
2022/02/07 15:59:36;;;;;;;4.93;1.63;;;;;;;;;;5038348;28;20191;-73
2022/02/07 16:02:04;;;;;;;4.38;1.33;;;;;;;;;;5040858;28;20207;-73
2022/02/07 16:04:31;;;;;;;7.00;1.98;;;;;;;;;;5047093;28;20226;-73
2022/02/07 16:06:58;;;;;;;5.70;1.30;;;;;;;;;;5041351;28;20199;-73
2022/02/07 16:09:25;;;;;;;6.25;1.88;;;;;;;;;;5042106;28;20211;-73
2022/02/07 16:11:52;;;;;;;6.88;1.75;;;;;;;;;;5039774;28;20294;-73
2022/02/07 16:14:24;;;;;;;5.45;2.70;;;;;;;;;;5039703;28;20202;-73
2022/02/07 16:16:51;;;;;;;5.85;2.03;;;;;;;;;;5033641;28;20203;-73
2022/02/07 16:19:18;;;;;;;3.60;1.45;;;;;;;;;;5027809;28;20246;-73
2022/02/07 16:21:46;;;;;;;4.72;1.90;;;;;;;;;;5038546;28;20199;-73
2022/02/07 16:24:17;;;;;;;7.75;3.42;;;;;;;;;;5041415;28;20214;-73
2022/02/07 16:26:44;;;;;;;8.40;1.42;;;;;;;;;;5046057;28;20261;-72
2022/02/07 16:29:11;;;;;;;4.03;1.60;;;;;;;;;;5044812;28;20206;-73
2022/02/07 16:31:40;;;;;;;3.85;1.80;;;;;;;;;;5038888;28;20226;-73
2022/02/07 16:34:08;;;;;;;6.47;1.48;;;;;;;;;;5035665;28;20280;-73